sensor_id;sensor_type;location;lat;lon;timestamp;pressure;altitude;pressure_sealevel;temperature;humidity
42727;BME280;28372;56.832;60.658;2023-04-02T00:01:49;98457.97;;;4.27;59.60
42727;BME280;28372;56.832;60.658;2023-04-02T00:04:18;98456.75;;;4.42;58.72
42727;BME280;28372;56.832;60.658;2023-04-02T00:07:34;98460.38;;;4.55;58.11
42727;BME280;28372;56.832;60.658;2023-04-02T00:09:41;98458.03;;;4.54;57.38
42727;BME280;28372;56.832;60.658;2023-04-02T00:12:15;98460.84;;;4.66;57.08
42727;BME280;28372;56.832;60.658;2023-04-02T00:14:44;98463.38;;;4.45;57.76
42727;BME280;28372;56.832;60.658;2023-04-02T00:17:12;98462.09;;;4.51;57.50
42727;BME280;28372;56.832;60.658;2023-04-02T00:19:44;98458.16;;;4.40;58.51
42727;BME280;28372;56.832;60.658;2023-04-02T00:22:15;98457.53;;;4.34;57.78
42727;BME280;28372;56.832;60.658;2023-04-02T00:24:42;98461.31;;;4.33;59.19
42727;BME280;28372;56.832;60.658;2023-04-02T00:27:11;98463.94;;;4.07;59.40
42727;BME280;28372;56.832;60.658;2023-04-02T00:29:49;98462.41;;;4.32;58.55
42727;BME280;28372;56.832;60.658;2023-04-02T00:32:18;98460.66;;;4.27;58.59
42727;BME280;28372;56.832;60.658;2023-04-02T00:34:47;98462.75;;;4.39;58.94
42727;BME280;28372;56.832;60.658;2023-04-02T00:37:16;98458.94;;;4.32;58.84
42727;BME280;28372;56.832;60.658;2023-04-02T00:39:44;98467.47;;;4.42;58.03
42727;BME280;28372;56.832;60.658;2023-04-02T00:42:12;98464.00;;;4.59;57.19
42727;BME280;28372;56.832;60.658;2023-04-02T00:44:40;98461.63;;;4.75;56.50
42727;BME280;28372;56.832;60.658;2023-04-02T00:47:33;98455.97;;;4.86;56.40
42727;BME280;28372;56.832;60.658;2023-04-02T00:50:00;98468.41;;;4.90;56.15
42727;BME280;28372;56.832;60.658;2023-04-02T00:52:29;98471.56;;;4.84;56.03
42727;BME280;28372;56.832;60.658;2023-04-02T00:55:31;98470.44;;;4.93;55.73
42727;BME280;28372;56.832;60.658;2023-04-02T00:57:51;98470.00;;;4.91;56.15
42727;BME280;28372;56.832;60.658;2023-04-02T01:00:34;98468.56;;;4.94;55.98
42727;BME280;28372;56.832;60.658;2023-04-02T01:05:40;98472.19;;;4.89;55.69
42727;BME280;28372;56.832;60.658;2023-04-02T01:08:30;98474.88;;;4.89;55.81
42727;BME280;28372;56.832;60.658;2023-04-02T01:16:21;98476.94;;;4.92;55.56
42727;BME280;28372;56.832;60.658;2023-04-02T01:24:19;98469.19;;;4.47;57.17
42727;BME280;28372;56.832;60.658;2023-04-02T01:29:22;98464.22;;;4.05;59.71
42727;BME280;28372;56.832;60.658;2023-04-02T01:31:51;98468.19;;;4.08;58.46
42727;BME280;28372;56.832;60.658;2023-04-02T01:34:21;98467.28;;;4.21;58.25
42727;BME280;28372;56.832;60.658;2023-04-02T01:37:09;98472.63;;;4.30;59.02
42727;BME280;28372;56.832;60.658;2023-04-02T01:39:49;98465.09;;;4.41;58.29
42727;BME280;28372;56.832;60.658;2023-04-02T01:42:24;98470.13;;;4.60;56.45
42727;BME280;28372;56.832;60.658;2023-04-02T01:45:07;98474.56;;;4.65;56.76
42727;BME280;28372;56.832;60.658;2023-04-02T01:47:35;98474.72;;;4.68;57.30
42727;BME280;28372;56.832;60.658;2023-04-02T01:52:48;98478.66;;;4.71;57.29
42727;BME280;28372;56.832;60.658;2023-04-02T01:55:18;98482.28;;;4.75;56.95
42727;BME280;28372;56.832;60.658;2023-04-02T01:57:47;98479.78;;;4.78;56.87
42727;BME280;28372;56.832;60.658;2023-04-02T02:00:16;98486.22;;;4.77;57.08
42727;BME280;28372;56.832;60.658;2023-04-02T02:02:48;98481.50;;;4.66;57.56
42727;BME280;28372;56.832;60.658;2023-04-02T02:05:17;98487.66;;;4.75;57.90
42727;BME280;28372;56.832;60.658;2023-04-02T02:07:47;98481.34;;;4.79;58.01
42727;BME280;28372;56.832;60.658;2023-04-02T02:10:18;98479.91;;;4.82;58.04
42727;BME280;28372;56.832;60.658;2023-04-02T02:12:48;98485.44;;;4.68;58.11
42727;BME280;28372;56.832;60.658;2023-04-02T02:15:16;98494.13;;;4.83;58.43
42727;BME280;28372;56.832;60.658;2023-04-02T02:17:44;98493.94;;;4.88;58.74
42727;BME280;28372;56.832;60.658;2023-04-02T02:20:12;98497.88;;;4.99;59.06
42727;BME280;28372;56.832;60.658;2023-04-02T02:22:43;98498.00;;;5.20;59.42
42727;BME280;28372;56.832;60.658;2023-04-02T02:25:18;98495.31;;;5.38;60.24
42727;BME280;28372;56.832;60.658;2023-04-02T02:30:26;98501.50;;;5.77;57.81
42727;BME280;28372;56.832;60.658;2023-04-02T02:41:02;98501.31;;;6.50;52.66
42727;BME280;28372;56.832;60.658;2023-04-02T02:43:32;98500.72;;;6.66;52.06
42727;BME280;28372;56.832;60.658;2023-04-02T02:46:01;98502.72;;;6.78;51.60
42727;BME280;28372;56.832;60.658;2023-04-02T02:48:33;98499.41;;;6.93;51.75
42727;BME280;28372;56.832;60.658;2023-04-02T02:51:08;98499.84;;;7.16;51.17
42727;BME280;28372;56.832;60.658;2023-04-02T02:53:45;98502.41;;;7.46;52.29
42727;BME280;28372;56.832;60.658;2023-04-02T02:56:14;98501.22;;;7.81;50.78
42727;BME280;28372;56.832;60.658;2023-04-02T02:58:43;98507.41;;;8.18;49.49
42727;BME280;28372;56.832;60.658;2023-04-02T03:01:21;98497.28;;;8.52;50.21
42727;BME280;28372;56.832;60.658;2023-04-02T03:03:51;98503.47;;;8.94;48.08
42727;BME280;28372;56.832;60.658;2023-04-02T03:06:21;98502.78;;;9.25;49.32
42727;BME280;28372;56.832;60.658;2023-04-02T03:08:58;98494.16;;;9.64;48.20
42727;BME280;28372;56.832;60.658;2023-04-02T03:17:11;98510.94;;;11.11;43.82
42727;BME280;28372;56.832;60.658;2023-04-02T03:19:46;98513.44;;;11.63;41.62
42727;BME280;28372;56.832;60.658;2023-04-02T03:22:27;98511.06;;;12.04;39.10
42727;BME280;28372;56.832;60.658;2023-04-02T03:24:59;98510.09;;;12.43;39.10
42727;BME280;28372;56.832;60.658;2023-04-02T03:27:33;98511.22;;;12.72;38.26
42727;BME280;28372;56.832;60.658;2023-04-02T03:32:50;98512.41;;;13.35;36.95
42727;BME280;28372;56.832;60.658;2023-04-02T03:35:39;98514.13;;;13.51;38.03
42727;BME280;28372;56.832;60.658;2023-04-02T03:38:17;98510.81;;;13.72;39.27
42727;BME280;28372;56.832;60.658;2023-04-02T03:41:00;98513.78;;;14.01;39.00
42727;BME280;28372;56.832;60.658;2023-04-02T03:43:33;98505.09;;;14.36;37.02
42727;BME280;28372;56.832;60.658;2023-04-02T03:48:56;98510.94;;;15.08;35.66
42727;BME280;28372;56.832;60.658;2023-04-02T03:51:29;98518.44;;;15.55;34.16
42727;BME280;28372;56.832;60.658;2023-04-02T03:54:01;98519.69;;;15.93;33.46
42727;BME280;28372;56.832;60.658;2023-04-02T03:56:29;98518.88;;;16.29;33.32
42727;BME280;28372;56.832;60.658;2023-04-02T03:59:03;98524.28;;;16.58;34.64
42727;BME280;28372;56.832;60.658;2023-04-02T04:01:42;98525.00;;;16.98;31.01
42727;BME280;28372;56.832;60.658;2023-04-02T04:04:18;98520.06;;;17.45;29.84
42727;BME280;28372;56.832;60.658;2023-04-02T04:06:48;98524.22;;;17.72;31.15
42727;BME280;28372;56.832;60.658;2023-04-02T04:09:22;98520.78;;;18.13;28.71
42727;BME280;28372;56.832;60.658;2023-04-02T04:11:52;98529.88;;;18.44;28.66
42727;BME280;28372;56.832;60.658;2023-04-02T04:19:37;98528.38;;;19.43;27.92
42727;BME280;28372;56.832;60.658;2023-04-02T04:22:17;98516.22;;;19.72;27.45
42727;BME280;28372;56.832;60.658;2023-04-02T04:24:49;98520.63;;;19.93;27.40
42727;BME280;28372;56.832;60.658;2023-04-02T04:32:49;98524.13;;;21.04;27.03
42727;BME280;28372;56.832;60.658;2023-04-02T04:35:35;98526.09;;;21.24;25.67
42727;BME280;28372;56.832;60.658;2023-04-02T04:38:15;98518.81;;;21.70;25.54
42727;BME280;28372;56.832;60.658;2023-04-02T04:40:47;98518.28;;;21.92;25.15
42727;BME280;28372;56.832;60.658;2023-04-02T04:46:08;98518.78;;;22.20;26.01
42727;BME280;28372;56.832;60.658;2023-04-02T04:51:09;98513.38;;;22.62;24.62
42727;BME280;28372;56.832;60.658;2023-04-02T04:53:47;98517.91;;;22.98;23.80
42727;BME280;28372;56.832;60.658;2023-04-02T04:56:20;98522.38;;;23.21;24.02
42727;BME280;28372;56.832;60.658;2023-04-02T05:01:35;98514.78;;;23.77;23.24
42727;BME280;28372;56.832;60.658;2023-04-02T05:07:24;98526.25;;;25.69;21.05
42727;BME280;28372;56.832;60.658;2023-04-02T05:21:31;98513.91;;;27.56;19.52
42727;BME280;28372;56.832;60.658;2023-04-02T05:27:37;98520.47;;;28.01;18.39
42727;BME280;28372;56.832;60.658;2023-04-02T05:33:27;98517.25;;;28.27;17.85
42727;BME280;28372;56.832;60.658;2023-04-02T05:36:00;98515.81;;;28.07;18.22
42727;BME280;28372;56.832;60.658;2023-04-02T05:38:33;98514.72;;;27.80;18.60
42727;BME280;28372;56.832;60.658;2023-04-02T05:43:34;98514.03;;;28.19;18.25
42727;BME280;28372;56.832;60.658;2023-04-02T05:46:14;98507.28;;;28.35;18.08
42727;BME280;28372;56.832;60.658;2023-04-02T05:48:47;98519.25;;;28.65;17.90
42727;BME280;28372;56.832;60.658;2023-04-02T05:51:26;98519.97;;;28.90;18.04
42727;BME280;28372;56.832;60.658;2023-04-02T05:53:59;98507.88;;;29.08;17.47
42727;BME280;28372;56.832;60.658;2023-04-02T05:56:36;98517.25;;;29.11;17.66
42727;BME280;28372;56.832;60.658;2023-04-02T05:59:22;98511.22;;;29.27;17.42
42727;BME280;28372;56.832;60.658;2023-04-02T06:07:21;98521.31;;;28.55;18.23
42727;BME280;28372;56.832;60.658;2023-04-02T06:10:04;98518.81;;;28.82;18.06
42727;BME280;28372;56.832;60.658;2023-04-02T06:12:53;98509.66;;;28.03;18.49
42727;BME280;28372;56.832;60.658;2023-04-02T06:15:22;98515.81;;;28.07;18.38
42727;BME280;28372;56.832;60.658;2023-04-02T06:18:04;98513.88;;;27.65;18.75
42727;BME280;28372;56.832;60.658;2023-04-02T06:20:34;98514.28;;;27.39;18.74
42727;BME280;28372;56.832;60.658;2023-04-02T06:26:04;98516.00;;;27.70;18.53
42727;BME280;28372;56.832;60.658;2023-04-02T06:33:52;98519.69;;;28.10;18.09
42727;BME280;28372;56.832;60.658;2023-04-02T06:36:26;98518.09;;;28.33;18.27
42727;BME280;28372;56.832;60.658;2023-04-02T06:39:05;98519.22;;;28.50;18.24
42727;BME280;28372;56.832;60.658;2023-04-02T06:41:35;98516.69;;;28.92;17.78
42727;BME280;28372;56.832;60.658;2023-04-02T06:44:22;98517.16;;;29.20;17.40
42727;BME280;28372;56.832;60.658;2023-04-02T06:47:10;98500.28;;;28.94;17.75
42727;BME280;28372;56.832;60.658;2023-04-02T06:52:52;98507.78;;;29.02;17.37
42727;BME280;28372;56.832;60.658;2023-04-02T06:55:33;98508.63;;;28.40;17.44
42727;BME280;28372;56.832;60.658;2023-04-02T06:58:04;98499.16;;;28.46;17.11
42727;BME280;28372;56.832;60.658;2023-04-02T07:00:43;98504.50;;;28.35;17.35
42727;BME280;28372;56.832;60.658;2023-04-02T07:03:23;98510.53;;;28.33;16.99
42727;BME280;28372;56.832;60.658;2023-04-02T07:05:53;98496.91;;;28.35;16.87
42727;BME280;28372;56.832;60.658;2023-04-02T07:08:21;98504.88;;;27.94;17.58
42727;BME280;28372;56.832;60.658;2023-04-02T07:10:50;98500.47;;;27.88;17.99
42727;BME280;28372;56.832;60.658;2023-04-02T07:13:22;98504.94;;;28.18;17.59
42727;BME280;28372;56.832;60.658;2023-04-02T07:15:52;98509.38;;;28.25;17.52
42727;BME280;28372;56.832;60.658;2023-04-02T07:18:28;98505.84;;;27.91;17.47
42727;BME280;28372;56.832;60.658;2023-04-02T07:20:59;98494.88;;;27.63;17.78
42727;BME280;28372;56.832;60.658;2023-04-02T07:23:27;98488.59;;;27.11;18.35
42727;BME280;28372;56.832;60.658;2023-04-02T07:25:55;98492.97;;;26.10;18.90
42727;BME280;28372;56.832;60.658;2023-04-02T07:28:24;98493.78;;;25.79;19.12
42727;BME280;28372;56.832;60.658;2023-04-02T07:30:51;98480.53;;;25.64;19.36
42727;BME280;28372;56.832;60.658;2023-04-02T07:33:21;98496.63;;;25.47;19.28
42727;BME280;28372;56.832;60.658;2023-04-02T07:35:51;98504.56;;;24.12;20.74
42727;BME280;28372;56.832;60.658;2023-04-02T07:38:19;98504.31;;;23.20;21.53
42727;BME280;28372;56.832;60.658;2023-04-02T07:40:47;98485.81;;;22.62;22.05
42727;BME280;28372;56.832;60.658;2023-04-02T07:43:15;98480.78;;;21.98;22.65
42727;BME280;28372;56.832;60.658;2023-04-02T07:45:42;98477.69;;;21.43;23.09
42727;BME280;28372;56.832;60.658;2023-04-02T07:48:12;98476.78;;;21.13;23.40
42727;BME280;28372;56.832;60.658;2023-04-02T07:50:40;98483.91;;;20.50;23.63
42727;BME280;28372;56.832;60.658;2023-04-02T07:53:25;98484.09;;;20.19;23.69
42727;BME280;28372;56.832;60.658;2023-04-02T07:55:55;98493.91;;;19.15;25.28
42727;BME280;28372;56.832;60.658;2023-04-02T07:58:26;98478.00;;;19.03;25.50
42727;BME280;28372;56.832;60.658;2023-04-02T08:00:54;98468.31;;;18.94;25.59
42727;BME280;28372;56.832;60.658;2023-04-02T08:03:21;98470.97;;;18.67;25.97
42727;BME280;28372;56.832;60.658;2023-04-02T08:05:54;98464.06;;;18.86;26.03
42727;BME280;28372;56.832;60.658;2023-04-02T08:08:24;98473.28;;;18.69;26.24
42727;BME280;28372;56.832;60.658;2023-04-02T08:10:51;98467.53;;;18.56;26.01
42727;BME280;28372;56.832;60.658;2023-04-02T08:13:19;98458.22;;;18.53;26.34
42727;BME280;28372;56.832;60.658;2023-04-02T08:15:46;98459.22;;;19.01;25.67
42727;BME280;28372;56.832;60.658;2023-04-02T08:18:14;98459.03;;;18.81;25.42
42727;BME280;28372;56.832;60.658;2023-04-02T08:20:41;98464.25;;;18.72;25.90
42727;BME280;28372;56.832;60.658;2023-04-02T08:23:15;98459.31;;;18.59;25.92
42727;BME280;28372;56.832;60.658;2023-04-02T08:25:44;98459.50;;;18.41;26.18
42727;BME280;28372;56.832;60.658;2023-04-02T08:28:12;98456.09;;;18.30;26.27
42727;BME280;28372;56.832;60.658;2023-04-02T08:30:40;98452.00;;;18.49;25.74
42727;BME280;28372;56.832;60.658;2023-04-02T08:33:08;98451.66;;;18.43;25.62
42727;BME280;28372;56.832;60.658;2023-04-02T08:35:35;98447.94;;;18.26;26.47
42727;BME280;28372;56.832;60.658;2023-04-02T08:38:03;98446.72;;;18.27;26.64
42727;BME280;28372;56.832;60.658;2023-04-02T08:40:37;98452.56;;;17.91;26.90
42727;BME280;28372;56.832;60.658;2023-04-02T08:43:49;98441.63;;;18.29;26.07
42727;BME280;28372;56.832;60.658;2023-04-02T08:46:30;98451.41;;;17.33;26.64
42727;BME280;28372;56.832;60.658;2023-04-02T08:49:02;98450.91;;;16.71;27.51
42727;BME280;28372;56.832;60.658;2023-04-02T08:51:35;98444.81;;;16.34;28.24
42727;BME280;28372;56.832;60.658;2023-04-02T08:54:27;98449.69;;;16.83;27.77
42727;BME280;28372;56.832;60.658;2023-04-02T08:59:34;98440.69;;;16.93;27.75
42727;BME280;28372;56.832;60.658;2023-04-02T09:04:42;98442.81;;;16.42;27.16
42727;BME280;28372;56.832;60.658;2023-04-02T09:07:15;98450.94;;;16.64;27.32
42727;BME280;28372;56.832;60.658;2023-04-02T09:09:46;98436.44;;;16.77;26.71
42727;BME280;28372;56.832;60.658;2023-04-02T09:12:20;98440.00;;;16.71;26.38
42727;BME280;28372;56.832;60.658;2023-04-02T09:17:37;98429.84;;;16.68;25.78
42727;BME280;28372;56.832;60.658;2023-04-02T09:20:24;98438.47;;;16.63;26.19
42727;BME280;28372;56.832;60.658;2023-04-02T09:22:52;98443.13;;;16.66;25.86
42727;BME280;28372;56.832;60.658;2023-04-02T09:25:21;98433.13;;;16.16;26.07
42727;BME280;28372;56.832;60.658;2023-04-02T09:27:50;98441.28;;;16.37;25.71
42727;BME280;28372;56.832;60.658;2023-04-02T09:33:00;98440.19;;;16.02;25.93
42727;BME280;28372;56.832;60.658;2023-04-02T09:35:36;98453.44;;;15.93;26.28
42727;BME280;28372;56.832;60.658;2023-04-02T09:38:19;98438.63;;;15.98;25.86
42727;BME280;28372;56.832;60.658;2023-04-02T09:43:23;98444.06;;;16.01;25.35
42727;BME280;28372;56.832;60.658;2023-04-02T09:46:12;98443.69;;;15.92;25.79
42727;BME280;28372;56.832;60.658;2023-04-02T09:48:48;98427.75;;;15.80;25.63
42727;BME280;28372;56.832;60.658;2023-04-02T09:51:22;98449.13;;;15.92;24.78
42727;BME280;28372;56.832;60.658;2023-04-02T09:54:06;98451.47;;;15.75;25.12
42727;BME280;28372;56.832;60.658;2023-04-02T09:56:39;98442.91;;;15.95;25.15
42727;BME280;28372;56.832;60.658;2023-04-02T09:59:14;98444.09;;;15.83;24.72
42727;BME280;28372;56.832;60.658;2023-04-02T10:07:35;98440.19;;;15.63;24.91
42727;BME280;28372;56.832;60.658;2023-04-02T10:10:34;98441.34;;;15.76;24.77
42727;BME280;28372;56.832;60.658;2023-04-02T10:15:49;98439.38;;;16.02;24.51
42727;BME280;28372;56.832;60.658;2023-04-02T10:18:32;98429.22;;;16.24;24.53
42727;BME280;28372;56.832;60.658;2023-04-02T10:21:05;98425.38;;;16.03;24.54
42727;BME280;28372;56.832;60.658;2023-04-02T10:23:33;98426.53;;;15.41;24.75
42727;BME280;28372;56.832;60.658;2023-04-02T10:28:58;98431.22;;;15.66;24.47
42727;BME280;28372;56.832;60.658;2023-04-02T10:31:39;98430.81;;;15.67;24.48
42727;BME280;28372;56.832;60.658;2023-04-02T10:34:29;98429.66;;;15.68;24.98
42727;BME280;28372;56.832;60.658;2023-04-02T10:39:50;98447.16;;;15.35;25.23
42727;BME280;28372;56.832;60.658;2023-04-02T10:42:28;98438.63;;;15.47;25.24
42727;BME280;28372;56.832;60.658;2023-04-02T10:45:18;98437.41;;;15.30;24.34
42727;BME280;28372;56.832;60.658;2023-04-02T10:50:41;98435.88;;;15.62;23.90
42727;BME280;28372;56.832;60.658;2023-04-02T10:53:17;98430.78;;;15.31;24.09
42727;BME280;28372;56.832;60.658;2023-04-02T10:55:58;98422.63;;;15.42;23.97
42727;BME280;28372;56.832;60.658;2023-04-02T10:58:35;98427.69;;;15.40;23.93
42727;BME280;28372;56.832;60.658;2023-04-02T11:01:16;98419.91;;;15.35;23.48
42727;BME280;28372;56.832;60.658;2023-04-02T11:03:52;98420.28;;;15.37;23.67
42727;BME280;28372;56.832;60.658;2023-04-02T11:06:37;98429.63;;;15.25;23.59
42727;BME280;28372;56.832;60.658;2023-04-02T11:09:25;98418.34;;;15.48;23.23
42727;BME280;28372;56.832;60.658;2023-04-02T11:11:56;98413.28;;;15.50;22.88
42727;BME280;28372;56.832;60.658;2023-04-02T11:14:26;98427.66;;;15.33;23.07
42727;BME280;28372;56.832;60.658;2023-04-02T11:16:55;98428.81;;;15.10;23.24
42727;BME280;28372;56.832;60.658;2023-04-02T11:19:30;98426.47;;;15.08;23.23
42727;BME280;28372;56.832;60.658;2023-04-02T11:22:03;98419.09;;;15.20;23.47
42727;BME280;28372;56.832;60.658;2023-04-02T11:39:57;98409.72;;;15.03;23.56
42727;BME280;28372;56.832;60.658;2023-04-02T11:42:28;98418.31;;;15.19;23.32
42727;BME280;28372;56.832;60.658;2023-04-02T11:50:38;98414.44;;;15.31;23.11
42727;BME280;28372;56.832;60.658;2023-04-02T11:55:44;98419.84;;;15.06;23.42
42727;BME280;28372;56.832;60.658;2023-04-02T12:12:30;98422.56;;;15.13;23.68
42727;BME280;28372;56.832;60.658;2023-04-02T12:14:59;98417.09;;;14.92;23.63
42727;BME280;28372;56.832;60.658;2023-04-02T12:17:35;98417.44;;;14.79;24.03
42727;BME280;28372;56.832;60.658;2023-04-02T12:22:47;98425.69;;;15.12;23.69
42727;BME280;28372;56.832;60.658;2023-04-02T12:25:27;98410.50;;;15.00;23.99
42727;BME280;28372;56.832;60.658;2023-04-02T12:30:37;98407.31;;;14.76;24.01
42727;BME280;28372;56.832;60.658;2023-04-02T12:35:56;98411.94;;;14.68;24.37
42727;BME280;28372;56.832;60.658;2023-04-02T12:38:41;98441.16;;;14.82;24.78
42727;BME280;28372;56.832;60.658;2023-04-02T12:41:26;98418.25;;;14.98;24.99
42727;BME280;28372;56.832;60.658;2023-04-02T12:44:03;98410.78;;;14.62;25.09
42727;BME280;28372;56.832;60.658;2023-04-02T12:46:33;98408.34;;;14.46;25.10
42727;BME280;28372;56.832;60.658;2023-04-02T12:51:46;98431.63;;;14.40;25.74
42727;BME280;28372;56.832;60.658;2023-04-02T12:54:16;98423.47;;;14.40;25.75
42727;BME280;28372;56.832;60.658;2023-04-02T12:56:47;98416.03;;;14.33;25.92
42727;BME280;28372;56.832;60.658;2023-04-02T13:01:59;98430.06;;;14.35;25.95
42727;BME280;28372;56.832;60.658;2023-04-02T13:04:28;98418.03;;;14.40;26.14
42727;BME280;28372;56.832;60.658;2023-04-02T13:06:55;98418.75;;;14.30;26.25
42727;BME280;28372;56.832;60.658;2023-04-02T13:09:34;98415.00;;;14.56;26.04
42727;BME280;28372;56.832;60.658;2023-04-02T13:12:18;98421.16;;;14.46;25.84
42727;BME280;28372;56.832;60.658;2023-04-02T13:14:54;98418.75;;;14.33;26.55
42727;BME280;28372;56.832;60.658;2023-04-02T13:17:42;98421.53;;;14.44;26.23
42727;BME280;28372;56.832;60.658;2023-04-02T13:22:59;98419.44;;;14.12;26.82
42727;BME280;28372;56.832;60.658;2023-04-02T13:25:34;98429.47;;;14.01;26.96
42727;BME280;28372;56.832;60.658;2023-04-02T13:28:05;98420.16;;;14.02;27.10
42727;BME280;28372;56.832;60.658;2023-04-02T13:30:40;98415.44;;;13.92;27.13
42727;BME280;28372;56.832;60.658;2023-04-02T13:33:08;98404.19;;;13.97;27.09
42727;BME280;28372;56.832;60.658;2023-04-02T13:35:36;98412.25;;;13.82;27.17
42727;BME280;28372;56.832;60.658;2023-04-02T13:38:07;98431.63;;;13.77;27.76
42727;BME280;28372;56.832;60.658;2023-04-02T13:40:35;98413.81;;;13.83;27.29
42727;BME280;28372;56.832;60.658;2023-04-02T13:43:08;98412.03;;;14.05;26.91
42727;BME280;28372;56.832;60.658;2023-04-02T13:45:44;98423.25;;;14.04;27.16
42727;BME280;28372;56.832;60.658;2023-04-02T13:48:13;98432.53;;;13.92;27.27
42727;BME280;28372;56.832;60.658;2023-04-02T13:50:50;98426.25;;;13.84;27.60
42727;BME280;28372;56.832;60.658;2023-04-02T13:53:50;98419.16;;;13.73;27.30
42727;BME280;28372;56.832;60.658;2023-04-02T13:56:19;98419.94;;;13.73;27.03
42727;BME280;28372;56.832;60.658;2023-04-02T13:58:49;98427.81;;;13.85;27.30
42727;BME280;28372;56.832;60.658;2023-04-02T14:01:19;98426.97;;;13.33;27.95
42727;BME280;28372;56.832;60.658;2023-04-02T14:03:50;98422.56;;;13.21;28.27
42727;BME280;28372;56.832;60.658;2023-04-02T14:11:59;98427.81;;;13.37;27.83
42727;BME280;28372;56.832;60.658;2023-04-02T14:31:17;98430.00;;;13.24;27.82
42727;BME280;28372;56.832;60.658;2023-04-02T14:36:19;98423.81;;;12.90;28.06
42727;BME280;28372;56.832;60.658;2023-04-02T14:38:57;98420.94;;;12.75;28.30
42727;BME280;28372;56.832;60.658;2023-04-02T14:44:05;98434.06;;;12.70;28.25
42727;BME280;28372;56.832;60.658;2023-04-02T14:46:36;98432.72;;;12.56;28.17
42727;BME280;28372;56.832;60.658;2023-04-02T14:49:40;98429.34;;;12.66;28.01
42727;BME280;28372;56.832;60.658;2023-04-02T14:52:18;98430.66;;;12.46;28.06
42727;BME280;28372;56.832;60.658;2023-04-02T14:55:02;98429.16;;;12.48;28.06
42727;BME280;28372;56.832;60.658;2023-04-02T14:57:39;98428.81;;;12.54;27.76
42727;BME280;28372;56.832;60.658;2023-04-02T15:00:27;98436.47;;;12.44;27.43
42727;BME280;28372;56.832;60.658;2023-04-02T15:03:20;98428.28;;;12.41;27.09
42727;BME280;28372;56.832;60.658;2023-04-02T15:05:47;98437.09;;;12.34;27.36
42727;BME280;28372;56.832;60.658;2023-04-02T15:11:11;98445.31;;;12.41;26.82
42727;BME280;28372;56.832;60.658;2023-04-02T15:13:49;98452.38;;;12.46;27.06
42727;BME280;28372;56.832;60.658;2023-04-02T15:16:20;98451.91;;;12.40;26.76
42727;BME280;28372;56.832;60.658;2023-04-02T15:18:59;98451.34;;;12.27;27.10
42727;BME280;28372;56.832;60.658;2023-04-02T15:21:42;98460.59;;;12.53;26.92
42727;BME280;28372;56.832;60.658;2023-04-02T15:24:53;98462.22;;;12.58;27.00
42727;BME280;28372;56.832;60.658;2023-04-02T15:30:25;98461.56;;;12.38;27.55
42727;BME280;28372;56.832;60.658;2023-04-02T15:36:02;98458.91;;;12.14;27.92
42727;BME280;28372;56.832;60.658;2023-04-02T15:38:43;98461.09;;;12.05;26.92
42727;BME280;28372;56.832;60.658;2023-04-02T15:41:25;98465.13;;;11.92;27.35
42727;BME280;28372;56.832;60.658;2023-04-02T15:44:13;98466.88;;;11.80;27.29
42727;BME280;28372;56.832;60.658;2023-04-02T15:47:16;98464.47;;;11.75;27.52
42727;BME280;28372;56.832;60.658;2023-04-02T15:52:37;98478.94;;;11.60;27.11
42727;BME280;28372;56.832;60.658;2023-04-02T15:58:07;98480.63;;;11.68;27.01
42727;BME280;28372;56.832;60.658;2023-04-02T16:11:33;98474.66;;;11.36;28.44
42727;BME280;28372;56.832;60.658;2023-04-02T16:14:23;98485.47;;;11.36;28.80
42727;BME280;28372;56.832;60.658;2023-04-02T16:16:52;98482.31;;;11.10;28.82
42727;BME280;28372;56.832;60.658;2023-04-02T16:19:34;98489.91;;;11.24;28.87
42727;BME280;28372;56.832;60.658;2023-04-02T16:24:37;98482.53;;;10.82;29.11
42727;BME280;28372;56.832;60.658;2023-04-02T16:27:20;98491.38;;;10.79;29.50
42727;BME280;28372;56.832;60.658;2023-04-02T16:32:37;98489.00;;;10.58;29.62
42727;BME280;28372;56.832;60.658;2023-04-02T16:43:48;98488.41;;;10.49;29.97
42727;BME280;28372;56.832;60.658;2023-04-02T16:46:38;98490.69;;;10.47;30.08
42727;BME280;28372;56.832;60.658;2023-04-02T17:00:43;98498.88;;;10.50;30.17
42727;BME280;28372;56.832;60.658;2023-04-02T17:03:44;98500.09;;;10.53;30.36
42727;BME280;28372;56.832;60.658;2023-04-02T17:06:38;98495.31;;;10.30;30.52
42727;BME280;28372;56.832;60.658;2023-04-02T17:09:18;98497.44;;;10.37;30.67
42727;BME280;28372;56.832;60.658;2023-04-02T17:11:57;98493.75;;;10.29;30.79
42727;BME280;28372;56.832;60.658;2023-04-02T17:14:34;98495.06;;;10.19;31.22
42727;BME280;28372;56.832;60.658;2023-04-02T17:17:08;98507.88;;;10.22;31.18
42727;BME280;28372;56.832;60.658;2023-04-02T17:19:38;98498.47;;;10.16;31.48
42727;BME280;28372;56.832;60.658;2023-04-02T17:22:13;98494.66;;;10.17;31.47
42727;BME280;28372;56.832;60.658;2023-04-02T17:24:50;98503.09;;;10.16;31.26
42727;BME280;28372;56.832;60.658;2023-04-02T17:27:35;98506.31;;;10.37;31.20
42727;BME280;28372;56.832;60.658;2023-04-02T17:30:14;98502.66;;;10.14;31.34
42727;BME280;28372;56.832;60.658;2023-04-02T17:32:43;98505.03;;;9.99;31.55
42727;BME280;28372;56.832;60.658;2023-04-02T17:35:23;98503.03;;;9.96;31.92
42727;BME280;28372;56.832;60.658;2023-04-02T17:41:14;98503.03;;;9.80;32.12
42727;BME280;28372;56.832;60.658;2023-04-02T17:55:20;98501.72;;;9.74;32.50
42727;BME280;28372;56.832;60.658;2023-04-02T18:01:08;98515.28;;;9.46;32.77
42727;BME280;28372;56.832;60.658;2023-04-02T18:03:48;98512.09;;;9.28;33.48
42727;BME280;28372;56.832;60.658;2023-04-02T18:06:30;98513.75;;;9.16;32.99
42727;BME280;28372;56.832;60.658;2023-04-02T18:17:20;98511.31;;;9.27;33.35
42727;BME280;28372;56.832;60.658;2023-04-02T18:22:36;98510.84;;;9.09;33.47
42727;BME280;28372;56.832;60.658;2023-04-02T18:25:26;98502.09;;;9.00;33.76